createdAt,value
2019-01-16T13:21:41.676Z,381.00
2019-01-16T13:23:55.698Z,428.00
2019-01-16T13:26:03.418Z,401.00
2019-01-16T13:28:10.805Z,351.00
2019-01-16T13:30:42.700Z,1433.00
2019-01-16T13:32:56.316Z,1848.00
2019-01-16T13:35:11.058Z,1670.00
2019-01-16T13:37:18.446Z,1601.00
2019-01-16T13:39:32.409Z,1417.00
2019-01-16T13:43:58.217Z,1381.00
2019-01-16T13:46:12.183Z,992.00
2019-01-16T13:50:08.660Z,968.00
2019-01-16T13:54:04.147Z,1088.00
2019-01-16T13:56:11.818Z,1047.00
2019-01-16T13:58:26.193Z,1205.00
2019-01-16T14:00:33.557Z,1093.00
2019-01-16T14:02:40.963Z,1108.00
2019-01-16T14:04:56.559Z,1156.00
2019-01-16T14:08:52.046Z,1217.00
2019-01-16T14:11:10.115Z,1301.00
2019-01-16T14:13:18.699Z,1408.00
2019-01-16T14:15:33.532Z,1402.00
2019-01-16T14:17:41.262Z,1486.00
2019-01-16T14:19:50.696Z,1549.00
2019-01-16T14:22:06.298Z,1677.00
2019-01-16T14:24:14.889Z,1666.00
2019-01-16T14:26:28.423Z,1751.00
2019-01-16T14:28:43.202Z,1727.00
2019-01-16T14:30:50.576Z,1640.00
2019-01-16T14:33:04.123Z,1475.00
2019-01-16T14:35:11.485Z,1368.00
2019-01-16T14:37:18.875Z,1411.00
2019-01-16T14:39:33.246Z,1458.00
2019-01-16T14:41:46.807Z,1373.00
2019-01-16T14:43:54.140Z,1371.00
2019-01-16T14:46:10.158Z,1284.00
2019-01-16T14:48:17.518Z,1245.00
2019-01-16T14:50:24.912Z,1135.00
2019-01-16T14:52:39.278Z,1128.00
2019-01-16T14:54:46.646Z,1097.00
2019-01-16T14:56:55.262Z,1046.00
2019-01-16T14:59:09.228Z,881.00
2019-01-16T15:01:16.587Z,818.00
2019-01-16T15:03:23.980Z,756.00
2019-01-16T15:05:38.353Z,750.00
2019-01-16T15:07:45.717Z,715.00
2019-01-16T15:09:53.103Z,740.00
2019-01-16T15:12:07.482Z,728.00
2019-01-16T15:14:14.839Z,703.00
2019-01-16T15:16:22.226Z,630.00
2019-01-16T15:18:36.188Z,586.00
2019-01-16T15:20:43.960Z,544.00
2019-01-16T15:22:52.578Z,513.00
2019-01-16T15:25:07.360Z,448.00
2019-01-16T15:27:14.726Z,431.00
2019-01-16T15:29:22.114Z,408.00
2019-01-16T15:31:36.491Z,360.00
2019-01-16T15:33:45.902Z,323.00
2019-01-16T15:35:58.215Z,275.00
2019-01-16T15:38:08.477Z,239.00
2019-01-16T15:40:15.846Z,231.00
2019-01-16T15:42:23.229Z,233.00
2019-01-16T15:44:38.422Z,204.00
2019-01-16T15:46:47.839Z,179.00
2019-01-16T15:48:55.222Z,162.00
2019-01-16T15:51:09.189Z,142.00
2019-01-16T15:53:18.598Z,118.00
2019-01-16T15:55:33.385Z,103.00
2019-01-16T15:57:41.974Z,89.00
2019-01-16T15:59:49.360Z,77.00
2019-01-16T16:02:03.331Z,64.00
2019-01-16T16:04:10.696Z,54.00
2019-01-16T16:06:18.078Z,43.00
2019-01-16T16:08:32.449Z,35.00
2019-01-16T16:10:43.097Z,27.00
2019-01-16T16:12:50.479Z,21.00
2019-01-16T16:15:04.444Z,19.00
2019-01-16T16:17:11.810Z,16.00
2019-01-16T16:19:19.205Z,13.00
2019-01-16T16:21:33.159Z,10.00
2019-01-16T16:23:41.758Z,9.00
2019-01-16T16:25:49.147Z,9.00
2019-01-16T16:28:04.331Z,9.00
2019-01-16T16:30:12.928Z,8.00
2019-01-16T16:32:21.546Z,7.00
2019-01-16T16:34:35.507Z,6.00
2019-01-16T16:36:46.150Z,6.00
2019-01-16T16:38:53.537Z,6.00
2019-01-16T16:41:07.496Z,6.00
2019-01-16T16:43:14.903Z,5.00
2019-01-16T16:45:22.258Z,6.00
2019-01-16T16:47:36.218Z,6.00
2019-01-16T16:49:44.805Z,5.00
2019-01-16T16:51:52.194Z,6.00
2019-01-16T16:54:07.387Z,5.00
2019-01-16T16:56:14.754Z,5.00
2019-01-16T16:58:24.185Z,5.00
2019-01-16T17:00:38.555Z,5.00
2019-01-16T17:02:49.204Z,5.00
2019-01-16T17:04:56.586Z,5.00
2019-01-16T17:07:12.192Z,5.00
2019-01-16T17:09:19.556Z,5.00
2019-01-16T17:11:28.198Z,5.00
2019-01-16T17:13:48.040Z,5.00
2019-01-16T17:15:51.141Z,5.00
2019-01-16T17:17:58.523Z,5.00
2019-01-16T17:20:12.486Z,5.00
2019-01-16T17:22:21.079Z,4.00
2019-01-16T17:24:28.467Z,5.00
2019-01-16T17:26:42.430Z,5.00
2019-01-16T17:28:49.797Z,5.00
2019-01-16T17:30:57.179Z,4.00
2019-01-16T17:33:11.558Z,5.00
2019-01-16T17:35:20.402Z,5.00
2019-01-16T17:37:27.536Z,5.00
2019-01-16T17:41:22.016Z,5.00
2019-01-16T17:43:29.626Z,5.00
2019-01-16T17:45:43.180Z,5.00
2019-01-16T17:47:51.772Z,5.00
2019-01-16T17:50:00.388Z,5.00
2019-01-16T17:52:15.172Z,5.00
2019-01-16T17:54:23.770Z,5.00
2019-01-16T17:56:31.158Z,5.00
2019-01-16T17:58:45.117Z,5.00
2019-01-16T18:00:53.719Z,5.00
2019-01-16T18:03:02.327Z,5.00
2019-01-16T18:05:18.340Z,5.00
2019-01-16T18:07:27.750Z,5.00
2019-01-16T18:09:35.138Z,5.00
2019-01-16T18:11:49.099Z,5.00
2019-01-16T18:13:56.466Z,5.00
2019-01-16T18:16:03.852Z,5.00
2019-01-16T18:18:20.271Z,5.00
2019-01-16T18:20:27.646Z,5.00
2019-01-16T18:22:35.024Z,5.00
2019-01-16T18:24:49.398Z,5.00
2019-01-16T18:26:56.764Z,5.00
2019-01-16T18:29:05.383Z,5.00
2019-01-16T18:31:19.342Z,5.00
2019-01-16T18:33:26.707Z,5.00
2019-01-16T18:35:35.327Z,5.00
2019-01-16T18:37:49.288Z,5.00
2019-01-16T18:39:57.061Z,5.00
2019-01-16T18:42:04.084Z,5.00
2019-01-16T18:44:18.410Z,5.00
2019-01-16T18:46:25.778Z,5.00
2019-01-16T18:48:33.163Z,5.00
2019-01-16T18:50:47.132Z,5.00
2019-01-16T18:52:55.800Z,5.00
2019-01-16T18:55:03.523Z,5.00
2019-01-16T18:57:18.707Z,5.00
2019-01-16T18:59:26.087Z,5.00
2019-01-16T19:01:34.692Z,5.00
2019-01-16T19:03:48.248Z,5.00
2019-01-16T19:05:56.837Z,5.00
2019-01-16T19:08:11.228Z,5.00
2019-01-16T19:10:20.625Z,5.00
2019-01-16T19:12:29.247Z,5.00
2019-01-16T19:14:43.204Z,5.00
2019-01-16T19:16:50.575Z,5.00
2019-01-16T19:18:57.969Z,5.00
2019-01-16T19:21:12.328Z,5.00
2019-01-16T19:23:19.695Z,5.00
2019-01-16T19:25:27.101Z,4.00
2019-01-16T19:27:41.462Z,4.00
2019-01-16T19:29:50.052Z,4.00
2019-01-16T19:31:58.670Z,4.00
2019-01-16T19:34:12.639Z,4.00
2019-01-16T19:36:21.228Z,4.00
2019-01-16T19:38:28.614Z,4.00
2019-01-16T19:40:42.160Z,6.00
2019-01-16T19:42:49.533Z,5.00
2019-01-16T19:44:56.915Z,6.00
2019-01-16T19:47:12.518Z,6.00
2019-01-16T19:49:21.938Z,5.00
2019-01-16T19:51:29.320Z,6.00
2019-01-16T19:53:43.279Z,6.00
2019-01-16T19:55:50.646Z,6.00
2019-01-16T19:57:58.034Z,6.00
2019-01-16T20:00:12.408Z,6.00
2019-01-16T20:02:20.999Z,6.00
2019-01-16T20:04:34.341Z,6.00
2019-01-16T20:06:48.520Z,5.00
2019-01-16T20:08:57.913Z,6.00
2019-01-16T20:11:05.294Z,6.00
2019-01-16T20:13:20.486Z,6.00
2019-01-16T20:15:27.850Z,6.00
2019-01-16T20:17:35.235Z,6.00
2019-01-16T20:19:50.446Z,6.00
2019-01-16T20:22:01.072Z,6.00
2019-01-16T20:26:27.333Z,6.00
2019-01-16T20:28:34.703Z,6.00
2019-01-16T20:30:42.088Z,6.00
2019-01-16T20:32:56.461Z,6.00
2019-01-16T20:35:09.638Z,6.00
2019-01-16T20:37:11.214Z,6.00
2019-01-16T20:39:26.409Z,6.00
2019-01-16T20:41:33.769Z,5.00
2019-01-16T20:43:41.156Z,6.00
2019-01-16T20:45:55.527Z,6.00
2019-01-16T20:48:02.896Z,6.00
2019-01-16T20:50:12.328Z,6.00
2019-01-16T20:52:27.521Z,6.00
2019-01-16T20:54:34.887Z,6.00
2019-01-16T20:56:43.561Z,6.00
2019-01-16T20:59:01.153Z,6.00
2019-01-16T21:01:10.568Z,6.00
2019-01-16T21:03:17.987Z,6.00
2019-01-16T21:05:32.328Z,5.00
2019-01-16T21:07:39.692Z,6.00
2019-01-16T21:09:48.314Z,5.00
2019-01-16T21:12:03.500Z,3.00
2019-01-16T21:16:22.353Z,3.00
2019-01-16T21:18:37.540Z,3.00
2019-01-16T21:20:52.278Z,3.00
2019-01-16T21:22:59.692Z,3.00
2019-01-16T21:25:16.388Z,3.00
